Aérodrome :
LOGIN :

S'inscrire | Disclaimer

   EN    FR    IT 

 










Légende :    VFR   VFR Marginal   IFR   IFR Intensif   IFR Très Intensif
Visi : 
Plafond : 
>= 8 km
>= 3000ft
5 à 8 km
1000 à 3000 ft
1500m à 5 km
500 à 1000 ft
800 à 1500m
200 à 500 ft
< 800m
< 200 ft
Symboles :   Orages  Brouillard  Fortes neiges  Fortes précipitations  Vent > 20 kt
SIGMETs :   Divers  Orages  Givrage  Turbulence  Onde Orograph.  Cendres Volcan.







- Altitude de l'aérodrome : 15 ft
- Code IATA : GIB


LXGB - Gibraltar

DERNIER METAR :
  • 220650Z 09006KT 8000 HZ FEW010 SCT012 BKN022 19/18 Q1019 TEMPO FEW012 BKN022

METARs EXPIRÉS :
  • 220550Z 05006KT 9999 FEW008 SCT012 BKN020 19/18 Q1019
  • 220450Z 05007KT 9999 FEW007 SCT010 BKN022 19/18 Q1019

TAF TAF LXGB
Valide du 22 à 06h jusqu'au 22 à 15h UTC


220429Z 2206/2215 05008KT 7000 BR SCT007 BKN020
BECMG 2206/2209 9999 NSW FEW012
TEMPO 2209/2213 SCT012
Pas de NOTAMs connus pour ce terrain.



MET'MAP, la Météo Aéronautique d'un coup d'oeil ! - Copyright ORBIFLY Décembre 2007 - Disclaimer

ORBIFLY MET'MAP TEAM :

Programmation & Développement : Alexandra Zaïnal
Conception & Développement : Baudouin d'Aumeries
Co-Programmation & Développement : Marc-Olivier Méhu
Soutien technique & logistique : Manuel Goepfert

Contact : metmap@orbifly.com




SOURCES & CREDITS :

   NOAA